Time;durP1;ratioP1;P1;durP2;ratioP2;P2;SDS_P1;SDS_P2;PMS_P1;PMS_P2;Temp;Humidity;BMP_temperature;BMP_pressure;BME280_temperature;BME280_humidity;BME280_pressure;Samples;Min_cycle;Max_cycle;Signal;HPM_P1;HPM_P2
2021/03/14 00:01:22;;;;;;;0.55;0.30;;;;;;;;;;5055586;28;20052;-81
2021/03/14 00:03:48;;;;;;;0.90;0.50;;;;;;;;;;5053573;28;20581;-84
2021/03/14 00:06:14;;;;;;;0.50;0.30;;;;;;;;;;5044099;28;20029;-80
2021/03/14 00:08:40;;;;;;;0.43;0.20;;;;;;;;;;5043242;28;20040;-84
2021/03/14 00:11:07;;;;;;;0.63;0.60;;;;;;;;;;5049484;28;20122;-83
2021/03/14 00:13:35;;;;;;;0.70;0.45;;;;;;;;;;5050343;28;20024;-81
2021/03/14 00:16:02;;;;;;;2.50;0.85;;;;;;;;;;5044354;28;20047;-83
2021/03/14 00:18:32;;;;;;;1.70;0.40;;;;;;;;;;5052574;28;20103;-83
2021/03/14 00:20:58;;;;;;;0.75;0.30;;;;;;;;;;5055731;28;20037;-84
2021/03/14 00:23:24;;;;;;;0.67;0.27;;;;;;;;;;5040949;28;20028;-83
2021/03/14 00:25:50;;;;;;;0.63;0.37;;;;;;;;;;5045396;28;20028;-81
2021/03/14 00:28:18;;;;;;;0.70;0.30;;;;;;;;;;5043925;28;20044;-82
2021/03/14 00:30:44;;;;;;;0.20;0.20;;;;;;;;;;5049927;28;20025;-82
2021/03/14 00:33:11;;;;;;;0.40;0.40;;;;;;;;;;5080607;28;20017;-82
2021/03/14 00:35:37;;;;;;;0.77;0.50;;;;;;;;;;5067785;28;20120;-84
2021/03/14 00:38:03;;;;;;;0.60;0.30;;;;;;;;;;5063137;28;20029;-82
2021/03/14 00:40:29;;;;;;;0.80;0.40;;;;;;;;;;5045630;28;20037;-82
2021/03/14 00:42:57;;;;;;;0.20;0.20;;;;;;;;;;5054046;28;20078;-82
2021/03/14 00:45:22;;;;;;;0.50;0.40;;;;;;;;;;5050200;28;20112;-81
2021/03/14 00:47:48;;;;;;;1.03;0.30;;;;;;;;;;5056719;28;20114;-81
2021/03/14 00:50:15;;;;;;;0.20;0.20;;;;;;;;;;5052376;28;20029;-80
2021/03/14 00:52:41;;;;;;;2.20;0.30;;;;;;;;;;5037035;28;20127;-80
2021/03/14 00:55:07;;;;;;;0.50;0.40;;;;;;;;;;5046306;28;20033;-80
2021/03/14 00:57:34;;;;;;;0.37;0.30;;;;;;;;;;5049269;28;20029;-81
2021/03/14 01:00:00;;;;;;;0.50;0.27;;;;;;;;;;5047056;28;20045;-80
2021/03/14 01:02:26;;;;;;;0.20;0.20;;;;;;;;;;5047122;28;20098;-80
2021/03/14 01:04:52;;;;;;;0.73;0.30;;;;;;;;;;5053561;28;20043;-80
2021/03/14 01:07:18;;;;;;;2.47;0.50;;;;;;;;;;5040398;28;20544;-81
2021/03/14 01:09:44;;;;;;;0.20;0.20;;;;;;;;;;5053707;28;20078;-81
2021/03/14 01:12:10;;;;;;;3.03;0.43;;;;;;;;;;5050537;28;20033;-81
2021/03/14 01:14:36;;;;;;;0.97;0.50;;;;;;;;;;5045523;28;20484;-80
2021/03/14 01:17:02;;;;;;;0.57;0.33;;;;;;;;;;5033735;28;20033;-80
2021/03/14 01:19:28;;;;;;;0.60;0.40;;;;;;;;;;5043325;28;20040;-81
2021/03/14 01:21:54;;;;;;;1.83;0.30;;;;;;;;;;5051566;28;20103;-82
2021/03/14 01:24:20;;;;;;;0.50;0.40;;;;;;;;;;5049226;28;20025;-82
2021/03/14 01:26:46;;;;;;;0.63;0.47;;;;;;;;;;5053510;28;20457;-81
2021/03/14 01:29:12;;;;;;;1.50;0.50;;;;;;;;;;5036722;28;20036;-81
2021/03/14 01:31:38;;;;;;;2.80;0.50;;;;;;;;;;5049623;28;20098;-81
2021/03/14 01:34:04;;;;;;;1.60;0.53;;;;;;;;;;5040696;28;20519;-80
2021/03/14 01:36:30;;;;;;;2.20;1.17;;;;;;;;;;5036745;28;20208;-81
2021/03/14 01:38:56;;;;;;;0.30;0.30;;;;;;;;;;5062296;28;20029;-81
2021/03/14 01:41:22;;;;;;;0.80;0.40;;;;;;;;;;5052232;28;20433;-81
2021/03/14 01:43:48;;;;;;;1.03;0.27;;;;;;;;;;5049801;28;20815;-82
2021/03/14 01:46:14;;;;;;;1.03;0.33;;;;;;;;;;5037904;28;20032;-80
2021/03/14 01:48:40;;;;;;;0.70;0.27;;;;;;;;;;5053526;28;20028;-80
2021/03/14 01:51:06;;;;;;;1.00;0.30;;;;;;;;;;5049704;28;20025;-81
2021/03/14 01:53:33;;;;;;;0.20;0.20;;;;;;;;;;5035702;28;20025;-81
2021/03/14 01:55:59;;;;;;;0.53;0.27;;;;;;;;;;5039087;28;20094;-81
2021/03/14 01:58:25;;;;;;;0.30;0.30;;;;;;;;;;5042149;28;20061;-80
2021/03/14 02:00:52;;;;;;;0.10;0.10;;;;;;;;;;5033123;28;20052;-80
2021/03/14 02:03:19;;;;;;;0.50;0.20;;;;;;;;;;5040255;28;20104;-82
2021/03/14 02:05:45;;;;;;;0.40;0.10;;;;;;;;;;5035609;28;20036;-81
2021/03/14 02:08:11;;;;;;;0.30;0.30;;;;;;;;;;5038495;28;20040;-81
2021/03/14 02:10:37;;;;;;;0.30;0.30;;;;;;;;;;5046572;28;20041;-80
2021/03/14 02:13:30;;;;;;;1.17;0.30;;;;;;;;;;5039254;28;20029;-82
2021/03/14 02:15:57;;;;;;;0.20;0.20;;;;;;;;;;5049338;28;20059;-80
2021/03/14 02:18:25;;;;;;;0.20;0.20;;;;;;;;;;5052674;28;20024;-83
2021/03/14 02:20:51;;;;;;;0.20;0.20;;;;;;;;;;5047474;28;20045;-82
2021/03/14 02:23:21;;;;;;;0.20;0.20;;;;;;;;;;5033317;28;20061;-81
2021/03/14 02:25:47;;;;;;;;;;;;;;;;;;5032246;28;20048;-81
2021/03/14 02:28:14;;;;;;;0.50;0.30;;;;;;;;;;5032997;28;19963;-81
2021/03/14 02:30:41;;;;;;;0.63;0.27;;;;;;;;;;5034879;28;20034;-81
2021/03/14 02:33:07;;;;;;;0.33;0.30;;;;;;;;;;5046522;28;20073;-80
2021/03/14 02:35:33;;;;;;;0.13;0.13;;;;;;;;;;5045417;28;20401;-80
2021/03/14 02:37:59;;;;;;;0.30;0.20;;;;;;;;;;5032133;28;20030;-81
2021/03/14 02:40:25;;;;;;;0.20;0.20;;;;;;;;;;5033868;28;20037;-83
2021/03/14 02:42:52;;;;;;;0.20;0.20;;;;;;;;;;5043035;28;20112;-80
2021/03/14 02:45:18;;;;;;;0.37;0.20;;;;;;;;;;5042611;28;20033;-80
2021/03/14 02:47:45;;;;;;;0.37;0.20;;;;;;;;;;5059831;28;20357;-80
2021/03/14 02:50:16;;;;;;;1.00;0.20;;;;;;;;;;5045430;28;20615;-81
2021/03/14 02:52:43;;;;;;;0.60;0.30;;;;;;;;;;5035151;28;20424;-80
2021/03/14 02:55:11;;;;;;;0.10;0.10;;;;;;;;;;5048015;28;20025;-80
2021/03/14 02:57:38;;;;;;;0.63;0.20;;;;;;;;;;5047750;28;20033;-80
2021/03/14 03:00:06;;;;;;;0.23;0.20;;;;;;;;;;5034143;28;20041;-80
2021/03/14 03:02:32;;;;;;;0.27;0.10;;;;;;;;;;5047315;28;20040;-80
2021/03/14 03:04:58;;;;;;;0.10;0.10;;;;;;;;;;5033887;28;20044;-80
2021/03/14 03:07:24;;;;;;;0.17;0.17;;;;;;;;;;5043585;28;20341;-81
2021/03/14 03:09:51;;;;;;;0.40;0.13;;;;;;;;;;5035305;28;20029;-82
2021/03/14 03:12:21;;;;;;;1.70;0.20;;;;;;;;;;5034490;28;20037;-81
2021/03/14 03:14:49;;;;;;;0.10;0.10;;;;;;;;;;5048254;28;20021;-82
2021/03/14 03:17:15;;;;;;;0.50;0.20;;;;;;;;;;5048562;28;20037;-80
2021/03/14 03:19:42;;;;;;;0.33;0.20;;;;;;;;;;5046780;28;20414;-82
2021/03/14 03:22:08;;;;;;;0.30;0.20;;;;;;;;;;5040722;28;20036;-81
2021/03/14 03:24:34;;;;;;;0.20;0.20;;;;;;;;;;5046255;28;20060;-82
2021/03/14 03:27:00;;;;;;;0.20;0.20;;;;;;;;;;5049970;28;20098;-81
2021/03/14 03:29:26;;;;;;;0.30;0.20;;;;;;;;;;5033133;28;20129;-81
2021/03/14 03:31:52;;;;;;;1.40;0.20;;;;;;;;;;5046572;28;20500;-80
2021/03/14 03:34:18;;;;;;;0.13;0.13;;;;;;;;;;5034923;28;20026;-80
2021/03/14 03:36:45;;;;;;;0.10;0.10;;;;;;;;;;5051292;28;20465;-80
2021/03/14 03:39:11;;;;;;;0.50;0.50;;;;;;;;;;5047880;28;20417;-82
2021/03/14 03:41:44;;;;;;;0.30;0.20;;;;;;;;;;5050061;28;20041;-80
2021/03/14 03:44:11;;;;;;;0.20;0.20;;;;;;;;;;5034969;28;20029;-80
2021/03/14 03:46:37;;;;;;;0.10;0.10;;;;;;;;;;5040546;28;20116;-81
2021/03/14 03:49:03;;;;;;;0.10;0.10;;;;;;;;;;5037715;28;20025;-81
2021/03/14 03:51:30;;;;;;;0.33;0.20;;;;;;;;;;5050900;28;20017;-80
2021/03/14 03:53:58;;;;;;;0.20;0.10;;;;;;;;;;5054578;28;20033;-80
2021/03/14 03:56:24;;;;;;;0.10;0.10;;;;;;;;;;5048419;28;20037;-81
2021/03/14 03:58:50;;;;;;;0.10;0.10;;;;;;;;;;5053352;28;20055;-82
2021/03/14 04:01:17;;;;;;;0.20;0.20;;;;;;;;;;5047240;28;20041;-80
2021/03/14 04:03:47;;;;;;;0.20;0.20;;;;;;;;;;5040045;28;20061;-81
2021/03/14 04:06:13;;;;;;;;;;;;;;;;;;5041462;28;20506;-82
2021/03/14 04:08:39;;;;;;;0.10;0.10;;;;;;;;;;5037603;28;19913;-82
2021/03/14 04:11:07;;;;;;;0.10;0.10;;;;;;;;;;5037809;28;20026;-80
2021/03/14 04:13:34;;;;;;;1.70;0.30;;;;;;;;;;5042603;28;20511;-81
2021/03/14 04:16:01;;;;;;;1.27;0.20;;;;;;;;;;5045723;28;20025;-82
2021/03/14 04:18:28;;;;;;;0.20;0.20;;;;;;;;;;5035424;28;20032;-80
2021/03/14 04:20:56;;;;;;;0.40;0.20;;;;;;;;;;5039922;28;20041;-82
2021/03/14 04:23:22;;;;;;;0.10;0.10;;;;;;;;;;5042868;28;20037;-82
2021/03/14 04:25:52;;;;;;;0.10;0.10;;;;;;;;;;5034436;28;20159;-82
2021/03/14 04:28:19;;;;;;;0.10;0.10;;;;;;;;;;5039809;28;20052;-81
2021/03/14 04:30:45;;;;;;;0.10;0.10;;;;;;;;;;5040084;28;20477;-80
2021/03/14 04:33:11;;;;;;;0.20;0.20;;;;;;;;;;5048801;28;20370;-82
2021/03/14 04:35:40;;;;;;;0.10;0.10;;;;;;;;;;5052331;28;20118;-81
2021/03/14 04:38:06;;;;;;;0.27;0.27;;;;;;;;;;5051826;28;20033;-81
2021/03/14 04:40:32;;;;;;;0.10;0.10;;;;;;;;;;5052476;28;20041;-82
2021/03/14 04:42:58;;;;;;;0.53;0.20;;;;;;;;;;5053590;28;20063;-82
2021/03/14 04:45:24;;;;;;;0.10;0.10;;;;;;;;;;5042715;28;20120;-83
2021/03/14 04:47:50;;;;;;;0.10;0.10;;;;;;;;;;5051324;28;20033;-81
2021/03/14 04:50:18;;;;;;;0.20;0.20;;;;;;;;;;5054591;28;20113;-82
2021/03/14 04:52:45;;;;;;;0.10;0.10;;;;;;;;;;5034666;28;20060;-84
2021/03/14 04:55:13;;;;;;;0.10;0.10;;;;;;;;;;5058567;28;20021;-81
2021/03/14 04:57:40;;;;;;;0.20;0.20;;;;;;;;;;5069387;28;20025;-82
2021/03/14 05:00:07;;;;;;;0.10;0.10;;;;;;;;;;5047884;28;20049;-83
2021/03/14 05:02:36;;;;;;;0.40;0.20;;;;;;;;;;5035705;28;20037;-82
2021/03/14 05:05:03;;;;;;;0.10;0.10;;;;;;;;;;5040123;28;20064;-83
2021/03/14 05:07:30;;;;;;;0.70;0.23;;;;;;;;;;5035993;28;20029;-83
2021/03/14 05:09:57;;;;;;;0.30;0.30;;;;;;;;;;5048830;28;20029;-83
2021/03/14 05:12:24;;;;;;;1.83;0.27;;;;;;;;;;5038591;28;20087;-85
2021/03/14 05:14:50;;;;;;;0.27;0.20;;;;;;;;;;5039333;28;20431;-82
2021/03/14 05:17:16;;;;;;;0.83;0.30;;;;;;;;;;5040587;28;20095;-84
2021/03/14 05:19:43;;;;;;;0.20;0.20;;;;;;;;;;5038712;28;20112;-84
2021/03/14 05:22:09;;;;;;;0.20;0.20;;;;;;;;;;5041466;28;20026;-82
2021/03/14 05:24:35;;;;;;;0.30;0.27;;;;;;;;;;5034964;28;20468;-82
2021/03/14 05:27:03;;;;;;;0.73;0.40;;;;;;;;;;5049057;28;20033;-83
2021/03/14 05:29:29;;;;;;;0.10;0.10;;;;;;;;;;5052653;28;20448;-84
2021/03/14 05:31:56;;;;;;;0.37;0.37;;;;;;;;;;5052285;28;20052;-83
2021/03/14 05:34:22;;;;;;;0.20;0.20;;;;;;;;;;5038551;28;20032;-83
2021/03/14 05:36:48;;;;;;;0.20;0.20;;;;;;;;;;5039663;28;20120;-84
2021/03/14 05:39:15;;;;;;;0.40;0.30;;;;;;;;;;5037138;28;20047;-82
2021/03/14 05:41:41;;;;;;;0.60;0.43;;;;;;;;;;5032737;28;20056;-83
2021/03/14 05:44:09;;;;;;;0.40;0.30;;;;;;;;;;5045348;28;20029;-83
2021/03/14 05:46:36;;;;;;;1.07;0.33;;;;;;;;;;5044644;28;20026;-83
2021/03/14 05:49:03;;;;;;;0.53;0.33;;;;;;;;;;5040962;28;20045;-83
2021/03/14 05:51:30;;;;;;;0.40;0.40;;;;;;;;;;5048331;28;20111;-84
2021/03/14 05:53:57;;;;;;;0.20;0.20;;;;;;;;;;5051876;28;20033;-83
2021/03/14 05:56:23;;;;;;;0.97;0.53;;;;;;;;;;5038461;28;20034;-82
2021/03/14 05:58:50;;;;;;;2.70;0.67;;;;;;;;;;5039998;28;20037;-84
2021/03/14 06:01:17;;;;;;;0.53;0.50;;;;;;;;;;5058478;28;20043;-82
2021/03/14 06:03:44;;;;;;;0.63;0.40;;;;;;;;;;5055256;28;20025;-85
2021/03/14 06:06:11;;;;;;;1.33;0.90;;;;;;;;;;5054556;28;20024;-84
2021/03/14 06:08:38;;;;;;;0.50;0.50;;;;;;;;;;5050138;28;20018;-84
2021/03/14 06:11:04;;;;;;;0.90;0.60;;;;;;;;;;5045803;28;20049;-84
2021/03/14 06:13:30;;;;;;;1.90;0.53;;;;;;;;;;5038933;28;20055;-84
2021/03/14 06:15:56;;;;;;;0.87;0.60;;;;;;;;;;5050636;28;20036;-81
2021/03/14 06:18:23;;;;;;;1.53;0.80;;;;;;;;;;5042419;28;20080;-82
2021/03/14 06:20:49;;;;;;;1.57;0.80;;;;;;;;;;5038641;28;20033;-83
2021/03/14 06:23:16;;;;;;;1.90;0.57;;;;;;;;;;5037493;28;20096;-83
2021/03/14 06:25:47;;;;;;;0.90;0.60;;;;;;;;;;5033742;28;20048;-81
2021/03/14 06:28:14;;;;;;;0.97;0.63;;;;;;;;;;5035029;28;20025;-80
2021/03/14 06:30:40;;;;;;;0.67;0.60;;;;;;;;;;5042676;28;20029;-81
2021/03/14 06:33:08;;;;;;;0.40;0.40;;;;;;;;;;5041432;28;20035;-83
2021/03/14 06:35:40;;;;;;;0.83;0.40;;;;;;;;;;5034659;28;20041;-81
2021/03/14 06:38:23;;;;;;;0.30;0.30;;;;;;;;;;5039439;28;20033;-82
2021/03/14 06:40:50;;;;;;;0.30;0.30;;;;;;;;;;5042251;28;20103;-82
2021/03/14 06:43:16;;;;;;;0.20;0.20;;;;;;;;;;5035339;28;20052;-82
2021/03/14 06:45:43;;;;;;;1.90;0.43;;;;;;;;;;5039695;28;20055;-83
2021/03/14 06:48:09;;;;;;;1.10;0.33;;;;;;;;;;5043909;28;20469;-81
2021/03/14 06:50:35;;;;;;;0.43;0.37;;;;;;;;;;5038464;28;20033;-82
2021/03/14 06:53:07;;;;;;;0.30;0.30;;;;;;;;;;5040444;28;20032;-83
2021/03/14 06:55:34;;;;;;;0.57;0.40;;;;;;;;;;5040270;28;20028;-82
2021/03/14 06:58:18;;;;;;;0.27;0.27;;;;;;;;;;5045324;28;20039;-84
2021/03/14 07:01:04;;;;;;;0.30;0.20;;;;;;;;;;5055718;28;20504;-82
2021/03/14 07:03:30;;;;;;;0.40;0.40;;;;;;;;;;5044921;28;20388;-83
2021/03/14 07:06:14;;;;;;;1.17;0.40;;;;;;;;;;5064332;28;20013;-83
2021/03/14 07:08:40;;;;;;;0.30;0.30;;;;;;;;;;5063873;28;20037;-83
2021/03/14 07:11:07;;;;;;;0.53;0.40;;;;;;;;;;5046989;28;20025;-82
2021/03/14 07:13:33;;;;;;;1.30;0.47;;;;;;;;;;5040145;28;20033;-82
2021/03/14 07:15:59;;;;;;;1.27;0.50;;;;;;;;;;5043494;28;20040;-82
2021/03/14 07:18:26;;;;;;;0.90;0.60;;;;;;;;;;5052067;28;20021;-81
2021/03/14 07:20:52;;;;;;;1.33;0.50;;;;;;;;;;5051382;28;20033;-81
2021/03/14 07:23:18;;;;;;;0.57;0.40;;;;;;;;;;5038387;28;20041;-83
2021/03/14 07:25:45;;;;;;;0.70;0.53;;;;;;;;;;5036319;28;20038;-81
2021/03/14 07:28:11;;;;;;;0.67;0.57;;;;;;;;;;5047484;28;20071;-82
2021/03/14 07:30:37;;;;;;;0.33;0.33;;;;;;;;;;5045312;28;20382;-83
2021/03/14 07:33:03;;;;;;;1.37;1.20;;;;;;;;;;5037092;28;20025;-84
2021/03/14 07:35:29;;;;;;;1.50;0.50;;;;;;;;;;5043562;28;20048;-82
2021/03/14 07:37:56;;;;;;;0.30;0.30;;;;;;;;;;5040529;28;20461;-85
2021/03/14 07:40:23;;;;;;;0.83;0.50;;;;;;;;;;5041955;28;20057;-83
2021/03/14 07:42:50;;;;;;;1.53;0.40;;;;;;;;;;5037614;28;20443;-84
2021/03/14 07:45:17;;;;;;;1.43;0.50;;;;;;;;;;5046529;28;20041;-82
2021/03/14 07:47:44;;;;;;;0.47;0.30;;;;;;;;;;5038995;28;20080;-81
2021/03/14 07:50:14;;;;;;;1.30;0.30;;;;;;;;;;5043333;28;20433;-82
2021/03/14 07:52:40;;;;;;;1.47;0.40;;;;;;;;;;5037826;28;20406;-82
2021/03/14 07:55:12;;;;;;;0.50;0.20;;;;;;;;;;5044356;28;20029;-83
2021/03/14 07:57:42;;;;;;;0.67;0.43;;;;;;;;;;5044807;28;20025;-81
2021/03/14 08:00:23;;;;;;;0.93;0.30;;;;;;;;;;5034555;28;20118;-85
2021/03/14 08:02:53;;;;;;;0.70;0.40;;;;;;;;;;5045678;28;20101;-81
2021/03/14 08:05:40;;;;;;;0.67;0.40;;;;;;;;;;5039544;28;20067;-83
2021/03/14 08:08:06;;;;;;;1.23;0.50;;;;;;;;;;5036963;28;20028;-85
2021/03/14 08:10:36;;;;;;;0.63;0.40;;;;;;;;;;5046430;28;20017;-86
2021/03/14 08:13:03;;;;;;;1.50;0.50;;;;;;;;;;5064506;28;20089;-83
2021/03/14 08:15:30;;;;;;;0.67;0.47;;;;;;;;;;5058822;28;20030;-85
2021/03/14 08:17:58;;;;;;;0.87;0.50;;;;;;;;;;5053948;28;20200;-86
2021/03/14 08:20:44;;;;;;;0.70;0.40;;;;;;;;;;5057284;28;20056;-84
2021/03/14 08:23:13;;;;;;;2.60;1.23;;;;;;;;;;5053098;28;20392;-85
2021/03/14 08:25:40;;;;;;;1.48;0.70;;;;;;;;;;5050209;28;20025;-81
2021/03/14 08:28:26;;;;;;;2.07;0.80;;;;;;;;;;5051052;28;20032;-81
2021/03/14 08:30:53;;;;;;;0.70;0.40;;;;;;;;;;5046765;28;20028;-80
2021/03/14 08:33:21;;;;;;;2.60;0.77;;;;;;;;;;5046257;28;20428;-82
2021/03/14 08:35:51;;;;;;;1.13;0.60;;;;;;;;;;5042784;28;20059;-81
2021/03/14 08:38:17;;;;;;;;;;;;;;;;;;5045307;28;20032;-78
2021/03/14 08:40:43;;;;;;;1.97;0.70;;;;;;;;;;5045907;28;19917;-79
2021/03/14 08:43:08;;;;;;;1.63;0.70;;;;;;;;;;5047699;28;20061;-78
2021/03/14 08:45:34;;;;;;;1.97;0.70;;;;;;;;;;5049966;28;20428;-76
2021/03/14 08:48:01;;;;;;;2.23;0.83;;;;;;;;;;5050155;28;20622;-78
2021/03/14 08:50:27;;;;;;;2.80;1.37;;;;;;;;;;5035093;28;20036;-76
2021/03/14 08:52:53;;;;;;;2.87;0.90;;;;;;;;;;5038187;28;20112;-78
2021/03/14 08:55:23;;;;;;;1.47;0.73;;;;;;;;;;5046025;28;20098;-77
2021/03/14 08:57:49;;;;;;;1.70;0.93;;;;;;;;;;5043269;28;20037;-78
2021/03/14 09:00:15;;;;;;;2.37;1.37;;;;;;;;;;5051132;28;20033;-77
2021/03/14 09:02:41;;;;;;;4.10;0.70;;;;;;;;;;5052279;28;20028;-77
2021/03/14 09:05:17;;;;;;;2.90;0.93;;;;;;;;;;5037226;28;20033;-77
2021/03/14 09:07:44;;;;;;;2.93;0.80;;;;;;;;;;5035176;28;20022;-77
2021/03/14 09:10:14;;;;;;;0.77;0.60;;;;;;;;;;5046246;28;20052;-75
2021/03/14 09:12:40;;;;;;;3.03;0.90;;;;;;;;;;5039597;28;20028;-77
2021/03/14 09:15:07;;;;;;;3.23;1.10;;;;;;;;;;5036592;28;20037;-77
2021/03/14 09:17:38;;;;;;;4.33;1.00;;;;;;;;;;5046309;28;20033;-76
2021/03/14 09:20:04;;;;;;;1.23;0.87;;;;;;;;;;5052524;28;20055;-77
2021/03/14 09:22:34;;;;;;;1.33;0.77;;;;;;;;;;5050484;28;20022;-78
2021/03/14 09:25:11;;;;;;;3.03;0.75;;;;;;;;;;5035878;28;20035;-77
2021/03/14 09:27:38;;;;;;;1.90;1.33;;;;;;;;;;5046472;28;20037;-80
2021/03/14 09:30:10;;;;;;;1.90;0.77;;;;;;;;;;5047893;28;20365;-79
2021/03/14 09:32:37;;;;;;;3.27;1.10;;;;;;;;;;5046602;28;20536;-79
2021/03/14 09:35:19;;;;;;;1.87;0.93;;;;;;;;;;5046680;28;20069;-80
2021/03/14 09:37:58;;;;;;;2.40;0.93;;;;;;;;;;5041577;28;20102;-78
2021/03/14 09:40:26;;;;;;;2.80;0.80;;;;;;;;;;5044967;28;20380;-79
2021/03/14 09:43:03;;;;;;;3.77;1.10;;;;;;;;;;5039702;28;20486;-79
2021/03/14 09:45:30;;;;;;;1.00;0.63;;;;;;;;;;5042714;28;20401;-77
2021/03/14 09:48:02;;;;;;;2.77;1.03;;;;;;;;;;5043262;28;20037;-75
2021/03/14 09:50:29;;;;;;;3.43;0.90;;;;;;;;;;5038655;28;20040;-75
2021/03/14 09:52:58;;;;;;;1.58;0.95;;;;;;;;;;5042434;28;20021;-78
2021/03/14 09:55:32;;;;;;;2.67;0.88;;;;;;;;;;5040485;28;20472;-74
2021/03/14 09:57:59;;;;;;;1.77;0.80;;;;;;;;;;5038070;28;20037;-82
2021/03/14 10:00:26;;;;;;;4.37;1.17;;;;;;;;;;5043063;28;20040;-83
2021/03/14 10:02:52;;;;;;;2.10;0.87;;;;;;;;;;5039960;28;20124;-82
2021/03/14 10:05:18;;;;;;;0.95;0.50;;;;;;;;;;5039407;28;20068;-82
2021/03/14 10:07:49;;;;;;;0.97;0.70;;;;;;;;;;5035808;28;20029;-78
2021/03/14 10:10:15;;;;;;;1.53;0.87;;;;;;;;;;5041061;28;20099;-83
2021/03/14 10:12:41;;;;;;;1.58;0.70;;;;;;;;;;5039365;28;20484;-81
2021/03/14 10:15:08;;;;;;;0.67;0.40;;;;;;;;;;5042466;28;20017;-83
2021/03/14 10:17:34;;;;;;;1.77;0.40;;;;;;;;;;5043866;28;20437;-83
2021/03/14 10:20:00;;;;;;;2.40;0.73;;;;;;;;;;5044104;28;20033;-83
2021/03/14 10:22:33;;;;;;;0.73;0.40;;;;;;;;;;5039318;28;20029;-83
2021/03/14 10:24:59;;;;;;;1.50;0.57;;;;;;;;;;5058094;28;20021;-82
2021/03/14 10:27:27;;;;;;;2.77;0.90;;;;;;;;;;5064785;28;20074;-83
2021/03/14 10:29:56;;;;;;;2.70;0.70;;;;;;;;;;5044776;28;20099;-82
2021/03/14 10:32:22;;;;;;;;;;;;;;;;;;5046391;28;20040;-80
2021/03/14 10:34:51;;;;;;;0.60;0.40;;;;;;;;;;5044000;28;20287;-84
2021/03/14 10:37:30;;;;;;;1.87;0.80;;;;;;;;;;5040864;28;20070;-81
2021/03/14 10:39:57;;;;;;;1.13;0.60;;;;;;;;;;5046824;28;20040;-82
2021/03/14 10:42:30;;;;;;;1.63;0.80;;;;;;;;;;5035783;28;20021;-82
2021/03/14 10:45:26;;;;;;;1.70;0.80;;;;;;;;;;5042591;28;20048;-80
2021/03/14 10:48:00;;;;;;;0.50;0.50;;;;;;;;;;4983285;28;20045;-80
2021/03/14 10:50:31;;;;;;;3.63;0.63;;;;;;;;;;4988461;28;20130;-82
2021/03/14 10:53:16;;;;;;;4.73;0.70;;;;;;;;;;4985850;28;20050;-80
2021/03/14 10:55:43;;;;;;;1.73;0.60;;;;;;;;;;4987183;28;20049;-78
2021/03/14 10:58:19;;;;;;;1.60;0.77;;;;;;;;;;4979555;28;20038;-78
2021/03/14 11:00:45;;;;;;;0.90;0.40;;;;;;;;;;4986326;28;20050;-79
2021/03/14 11:03:23;;;;;;;2.20;0.20;;;;;;;;;;4986226;28;20034;-81
2021/03/14 11:05:49;;;;;;;2.73;0.83;;;;;;;;;;4980712;28;20050;-82
2021/03/14 11:08:15;;;;;;;2.77;0.77;;;;;;;;;;4981187;28;20112;-82
2021/03/14 11:10:41;;;;;;;4.63;0.90;;;;;;;;;;4984645;28;20050;-82
2021/03/14 11:13:16;;;;;;;2.37;0.73;;;;;;;;;;4980929;28;20506;-81
2021/03/14 11:15:42;;;;;;;1.87;0.83;;;;;;;;;;4987176;28;20488;-80
2021/03/14 11:18:19;;;;;;;1.43;0.70;;;;;;;;;;4985768;28;20046;-84
2021/03/14 11:20:45;;;;;;;2.50;0.60;;;;;;;;;;4985392;28;20117;-83
2021/03/14 11:23:11;;;;;;;0.93;0.60;;;;;;;;;;4981393;28;20126;-82
2021/03/14 11:25:36;;;;;;;1.58;0.70;;;;;;;;;;5044157;28;20140;-82
2021/03/14 11:28:08;;;;;;;0.90;0.60;;;;;;;;;;5040087;28;20113;-85
2021/03/14 11:30:34;;;;;;;0.77;0.60;;;;;;;;;;5055234;28;20032;-84
2021/03/14 11:33:00;;;;;;;2.67;0.82;;;;;;;;;;5053506;28;20265;-82
2021/03/14 11:35:26;;;;;;;4.47;0.90;;;;;;;;;;5039123;28;20428;-83
2021/03/14 11:37:52;;;;;;;0.73;0.50;;;;;;;;;;5033509;28;20033;-82
2021/03/14 11:40:18;;;;;;;1.60;0.60;;;;;;;;;;5037386;28;20033;-81
2021/03/14 11:42:47;;;;;;;1.55;0.68;;;;;;;;;;5035092;28;20029;-81
2021/03/14 11:45:14;;;;;;;1.55;0.70;;;;;;;;;;5038763;28;20056;-81
2021/03/14 11:47:40;;;;;;;1.13;0.60;;;;;;;;;;5036998;28;20038;-83
2021/03/14 11:50:07;;;;;;;1.70;0.80;;;;;;;;;;5037589;28;20029;-79
2021/03/14 11:52:33;;;;;;;0.73;0.60;;;;;;;;;;5039775;28;20033;-77
2021/03/14 11:54:59;;;;;;;1.90;0.77;;;;;;;;;;5038145;28;20393;-78
2021/03/14 11:57:25;;;;;;;0.90;0.53;;;;;;;;;;5040953;28;20033;-78
2021/03/14 11:59:51;;;;;;;1.73;0.60;;;;;;;;;;5042646;28;20033;-76
2021/03/14 12:02:17;;;;;;;2.90;0.93;;;;;;;;;;5036987;28;20083;-77
2021/03/14 12:04:43;;;;;;;3.70;1.80;;;;;;;;;;5038627;28;20025;-77
2021/03/14 12:07:09;;;;;;;4.53;1.23;;;;;;;;;;5037338;28;20487;-78
2021/03/14 12:09:35;;;;;;;2.40;1.40;;;;;;;;;;5039936;28;20033;-80
2021/03/14 12:12:04;;;;;;;4.47;1.20;;;;;;;;;;5040368;28;20037;-80
2021/03/14 12:14:30;;;;;;;3.55;1.80;;;;;;;;;;5041000;28;20037;-79
2021/03/14 12:16:56;;;;;;;3.50;1.27;;;;;;;;;;5042148;28;20029;-79
2021/03/14 12:19:22;;;;;;;1.10;0.70;;;;;;;;;;5038236;28;20041;-79
2021/03/14 12:21:48;;;;;;;4.30;1.13;;;;;;;;;;5041620;28;20119;-79
2021/03/14 12:24:14;;;;;;;1.47;0.83;;;;;;;;;;5039071;28;20029;-80
2021/03/14 12:26:40;;;;;;;3.60;1.03;;;;;;;;;;5041886;28;20453;-80
2021/03/14 12:29:07;;;;;;;3.40;0.80;;;;;;;;;;5040395;28;20438;-81
2021/03/14 12:31:33;;;;;;;1.57;0.43;;;;;;;;;;5041666;28;20090;-78
2021/03/14 12:33:59;;;;;;;2.33;0.90;;;;;;;;;;5040551;28;20538;-79
2021/03/14 12:36:25;;;;;;;1.23;0.90;;;;;;;;;;5040788;28;20049;-78
2021/03/14 12:38:51;;;;;;;1.70;1.00;;;;;;;;;;5044096;28;20044;-78
2021/03/14 12:41:17;;;;;;;1.90;1.00;;;;;;;;;;5039289;28;20412;-80
2021/03/14 12:43:43;;;;;;;2.73;1.30;;;;;;;;;;5039490;28;20017;-80
2021/03/14 12:46:09;;;;;;;3.23;1.23;;;;;;;;;;5039940;28;20034;-80
2021/03/14 12:48:35;;;;;;;2.13;1.27;;;;;;;;;;5040650;28;20025;-79
2021/03/14 12:51:01;;;;;;;3.30;1.40;;;;;;;;;;5038606;28;20431;-81
2021/03/14 12:53:27;;;;;;;3.80;1.10;;;;;;;;;;5040976;28;20821;-80
2021/03/14 12:55:53;;;;;;;2.97;1.37;;;;;;;;;;5042318;28;20128;-80
2021/03/14 12:58:19;;;;;;;4.53;1.50;;;;;;;;;;5044351;28;20052;-80
2021/03/14 13:00:45;;;;;;;3.80;1.30;;;;;;;;;;5044366;28;20049;-78
2021/03/14 13:03:11;;;;;;;3.15;1.05;;;;;;;;;;5041011;28;20048;-79
2021/03/14 13:05:44;;;;;;;2.83;1.85;;;;;;;;;;5049794;28;20120;-80
2021/03/14 13:08:10;;;;;;;2.60;1.00;;;;;;;;;;5041874;28;20824;-79
2021/03/14 13:10:36;;;;;;;1.58;1.10;;;;;;;;;;5044533;28;20033;-80
2021/03/14 13:13:03;;;;;;;2.55;1.20;;;;;;;;;;5039827;28;20037;-80
2021/03/14 13:15:29;;;;;;;4.78;1.60;;;;;;;;;;5044551;28;20120;-81
2021/03/14 13:17:55;;;;;;;3.20;1.13;;;;;;;;;;5038650;28;20045;-81
2021/03/14 13:20:21;;;;;;;3.70;1.73;;;;;;;;;;5037042;28;20048;-79
2021/03/14 13:22:47;;;;;;;4.35;1.20;;;;;;;;;;5040632;28;20095;-81
2021/03/14 13:25:13;;;;;;;1.35;0.80;;;;;;;;;;5046489;28;20036;-81
2021/03/14 13:27:39;;;;;;;1.55;0.77;;;;;;;;;;5040489;28;20099;-78
2021/03/14 13:30:06;;;;;;;1.00;0.60;;;;;;;;;;5044291;28;20029;-79
2021/03/14 13:32:32;;;;;;;4.20;0.90;;;;;;;;;;5039702;28;20028;-79
2021/03/14 13:34:58;;;;;;;1.92;0.70;;;;;;;;;;5038571;28;20060;-79
2021/03/14 13:37:24;;;;;;;1.55;0.80;;;;;;;;;;5044305;28;20056;-81
2021/03/14 13:39:50;;;;;;;1.35;0.82;;;;;;;;;;5032100;28;20481;-79
2021/03/14 13:42:18;;;;;;;2.40;1.10;;;;;;;;;;5043672;28;20034;-79
2021/03/14 13:44:44;;;;;;;3.58;1.10;;;;;;;;;;5041474;28;20108;-78
2021/03/14 13:47:10;;;;;;;4.43;1.13;;;;;;;;;;5046733;28;20036;-79
2021/03/14 13:49:36;;;;;;;2.00;0.90;;;;;;;;;;5043392;28;20032;-80
2021/03/14 13:52:03;;;;;;;1.70;0.75;;;;;;;;;;5044840;28;20111;-80
2021/03/14 13:54:29;;;;;;;3.58;1.00;;;;;;;;;;5037915;28;20400;-82
2021/03/14 13:56:56;;;;;;;2.42;0.70;;;;;;;;;;5044169;28;20025;-79
2021/03/14 13:59:23;;;;;;;1.75;0.85;;;;;;;;;;5038634;28;20116;-79
2021/03/14 14:01:49;;;;;;;1.35;0.70;;;;;;;;;;5038240;28;20171;-81
2021/03/14 14:04:15;;;;;;;2.58;0.80;;;;;;;;;;5036217;28;20045;-80
2021/03/14 14:06:41;;;;;;;4.05;1.08;;;;;;;;;;5040054;28;20056;-81
2021/03/14 14:09:09;;;;;;;0.55;0.50;;;;;;;;;;5037434;28;20029;-80
2021/03/14 14:11:36;;;;;;;1.80;0.73;;;;;;;;;;5041111;28;20187;-80
2021/03/14 14:14:03;;;;;;;2.40;0.60;;;;;;;;;;5039992;28;20557;-81
2021/03/14 14:16:33;;;;;;;1.90;0.80;;;;;;;;;;5036951;28;20021;-80
2021/03/14 14:18:59;;;;;;;2.30;1.00;;;;;;;;;;5042998;28;20068;-79
2021/03/14 14:21:25;;;;;;;1.27;0.80;;;;;;;;;;5039322;28;20041;-80
2021/03/14 14:23:51;;;;;;;1.27;0.73;;;;;;;;;;5036770;28;20033;-79
2021/03/14 14:26:17;;;;;;;1.30;0.90;;;;;;;;;;5040263;28;20029;-82
2021/03/14 14:28:43;;;;;;;4.90;1.10;;;;;;;;;;5040804;28;20479;-80
2021/03/14 14:31:09;;;;;;;1.33;0.77;;;;;;;;;;5039043;28;20037;-82
2021/03/14 14:33:35;;;;;;;1.63;0.65;;;;;;;;;;5039010;28;20115;-82
2021/03/14 14:36:01;;;;;;;1.38;0.70;;;;;;;;;;5039657;28;20713;-82
2021/03/14 14:38:28;;;;;;;1.35;1.10;;;;;;;;;;5040511;28;20064;-83
2021/03/14 14:40:54;;;;;;;2.60;0.75;;;;;;;;;;5037417;28;20128;-82
2021/03/14 14:43:20;;;;;;;1.75;0.90;;;;;;;;;;5037152;28;20108;-81
2021/03/14 14:45:46;;;;;;;3.53;1.00;;;;;;;;;;5037541;28;20041;-81